Time;durP1;ratioP1;P1;durP2;ratioP2;P2;SDS_P1;SDS_P2;PMS_P1;PMS_P2;Temp;Humidity;BMP_temperature;BMP_pressure;BME280_temperature;BME280_humidity;BME280_pressure;Samples;Min_cycle;Max_cycle;Signal;HPM_P1;HPM_P2
2022/07/17 00:01:14;;;;;;;3.80;2.33;;;;;;;18.45;45.84;97493.31;4937353;29;20059;-74
2022/07/17 00:03:42;;;;;;;3.75;2.70;;;;;;;18.41;45.93;97492.13;4937322;29;20110;-75
2022/07/17 00:06:10;;;;;;;4.47;2.63;;;;;;;18.33;46.07;97487.09;4937139;29;20047;-75
2022/07/17 00:08:38;;;;;;;2.50;2.30;;;;;;;18.27;46.40;97490.56;4937275;29;20068;-75
2022/07/17 00:11:06;;;;;;;2.70;2.25;;;;;;;18.19;46.42;97493.41;4936882;29;20518;-74
2022/07/17 00:13:35;;;;;;;3.10;2.60;;;;;;;18.16;46.72;97489.38;4937241;29;20114;-75
2022/07/17 00:16:02;;;;;;;3.55;2.40;;;;;;;18.14;46.60;97494.03;4937295;29;20067;-75
2022/07/17 00:18:30;;;;;;;3.25;2.28;;;;;;;18.09;46.83;97489.41;4936975;29;20474;-75
2022/07/17 00:20:58;;;;;;;2.80;2.53;;;;;;;18.06;46.75;97489.81;4937016;29;20105;-74
2022/07/17 00:23:26;;;;;;;3.80;2.50;;;;;;;18.04;47.23;97491.84;4937337;29;20132;-75
2022/07/17 00:25:54;;;;;;;3.95;2.40;;;;;;;18.01;47.21;97489.59;4952835;29;20051;-75
2022/07/17 00:28:21;;;;;;;2.05;1.92;;;;;;;17.97;47.16;97496.31;4957323;29;20052;-76
2022/07/17 00:30:50;;;;;;;4.18;2.55;;;;;;;17.94;47.32;97488.03;4951791;29;20561;-75
2022/07/17 00:33:18;;;;;;;4.72;2.40;;;;;;;17.91;47.43;97497.16;4944673;29;20048;-75
2022/07/17 00:35:45;;;;;;;2.75;2.33;;;;;;;17.89;47.29;97499.19;4939864;29;20484;-75
2022/07/17 00:38:14;;;;;;;3.28;2.28;;;;;;;17.89;47.41;97486.81;4937673;29;20051;-75
2022/07/17 00:40:45;;;;;;;5.68;2.30;;;;;;;17.88;47.38;97492.28;4936561;29;20309;-75
2022/07/17 00:43:13;;;;;;;2.25;2.05;;;;;;;17.86;47.54;97495.16;4936912;29;20058;-75
2022/07/17 00:45:40;;;;;;;3.42;1.98;;;;;;;17.89;47.98;97505.28;4936943;29;20425;-74
2022/07/17 00:48:11;;;;;;;3.53;2.40;;;;;;;17.91;47.70;97492.69;4936609;29;20058;-75
2022/07/17 00:50:42;;;;;;;2.58;2.00;;;;;;;17.95;47.95;97498.38;4936684;29;20059;-75
2022/07/17 00:53:10;;;;;;;2.45;2.25;;;;;;;17.92;47.55;97501.41;4936790;29;20055;-74
2022/07/17 00:55:40;;;;;;;4.85;2.50;;;;;;;17.84;47.92;97491.06;4936390;29;20080;-75
2022/07/17 00:58:13;;;;;;;3.70;2.88;;;;;;;17.82;48.22;97483.38;4936602;29;20056;-75
2022/07/17 01:00:41;;;;;;;3.58;2.35;;;;;;;17.83;47.80;97492.09;4936109;29;20119;-75
2022/07/17 01:03:10;;;;;;;2.55;2.35;;;;;;;17.83;47.94;97494.75;4936724;29;20055;-74
2022/07/17 01:05:38;;;;;;;3.88;2.75;;;;;;;17.81;47.81;97499.38;4936460;29;20102;-74
2022/07/17 01:08:06;;;;;;;4.07;2.30;;;;;;;17.81;48.05;97499.38;4936481;29;20142;-74
2022/07/17 01:10:34;;;;;;;3.25;2.40;;;;;;;17.82;47.98;97487.81;4935953;29;20047;-74
2022/07/17 01:13:01;;;;;;;2.80;2.60;;;;;;;17.83;48.18;97494.75;4936456;29;20521;-75
2022/07/17 01:15:29;;;;;;;3.50;2.80;;;;;;;17.83;48.15;97495.53;4936281;29;20066;-74
2022/07/17 01:17:59;;;;;;;6.65;3.00;;;;;;;17.81;48.39;97502.03;4935992;29;20094;-75
2022/07/17 01:20:28;;;;;;;2.78;2.35;;;;;;;17.81;48.36;97499.38;4935791;29;20051;-74
2022/07/17 01:22:57;;;;;;;4.28;2.17;;;;;;;17.82;48.72;97498.38;4936659;29;20083;-74
2022/07/17 01:25:25;;;;;;;2.30;2.10;;;;;;;17.83;48.67;97495.53;4936054;29;20102;-74
2022/07/17 01:27:53;;;;;;;4.30;2.40;;;;;;;17.78;48.30;97497.97;4935766;29;20087;-75
2022/07/17 01:30:21;;;;;;;2.15;2.00;;;;;;;17.68;48.43;97494.94;4935780;29;20387;-74
2022/07/17 01:32:48;;;;;;;3.20;2.33;;;;;;;17.61;48.53;97500.22;4936188;29;20485;-74
2022/07/17 01:35:16;;;;;;;2.63;2.40;;;;;;;17.55;48.54;97498.38;4935781;29;20087;-75
2022/07/17 01:37:46;;;;;;;3.50;2.25;;;;;;;17.52;49.23;97500.63;4935749;29;20138;-75
2022/07/17 01:40:16;;;;;;;3.42;2.40;;;;;;;17.47;48.96;97501.22;4935220;29;20074;-75
2022/07/17 01:42:46;;;;;;;2.95;2.58;;;;;;;17.39;48.92;97498.81;4935615;29;20506;-75
2022/07/17 01:45:15;;;;;;;5.43;2.80;;;;;;;17.34;49.04;97495.94;4936111;29;20055;-74
2022/07/17 01:47:43;;;;;;;2.25;2.05;;;;;;;17.30;48.95;97500.84;4935471;29;20142;-75
2022/07/17 01:50:12;;;;;;;2.20;2.00;;;;;;;17.30;49.42;97499.00;4934927;29;20520;-74
2022/07/17 01:52:41;;;;;;;2.60;2.40;;;;;;;17.27;48.89;97496.78;4935066;29;20051;-75
2022/07/17 01:55:11;;;;;;;5.90;2.55;;;;;;;17.18;49.24;97497.97;4935682;29;20131;-74
2022/07/17 01:57:41;;;;;;;3.08;2.33;;;;;;;17.14;49.34;97496.75;4935564;29;20501;-75
2022/07/17 02:00:11;;;;;;;2.55;2.35;;;;;;;17.19;50.32;97499.59;4935064;29;20047;-74
2022/07/17 02:02:39;;;;;;;2.55;2.35;;;;;;;17.22;49.25;97499.19;4935520;29;20513;-74
2022/07/17 02:05:07;;;;;;;2.55;2.35;;;;;;;17.21;49.26;97496.78;4935271;29;20520;-74
2022/07/17 02:07:39;;;;;;;4.38;3.00;;;;;;;17.18;49.11;97495.34;4935382;29;20067;-74
2022/07/17 02:10:09;;;;;;;3.97;3.50;;;;;;;17.13;49.27;97495.13;4935480;29;20047;-74
2022/07/17 02:12:37;;;;;;;3.92;2.63;;;;;;;17.08;49.90;97493.09;4935447;29;20054;-74
2022/07/17 02:15:07;;;;;;;2.90;2.70;;;;;;;17.07;50.37;97493.31;4935557;29;20098;-75
2022/07/17 02:17:34;;;;;;;4.60;3.30;;;;;;;17.06;50.04;97489.06;4934924;29;20139;-74
2022/07/17 02:20:02;;;;;;;4.22;3.80;;;;;;;17.03;50.52;97484.16;4934939;29;20090;-74
2022/07/17 02:22:30;;;;;;;5.18;3.22;;;;;;;17.00;50.18;97489.84;4935362;29;20094;-75
2022/07/17 02:24:58;;;;;;;3.72;2.97;;;;;;;16.95;50.04;97490.44;4935183;29;20134;-74
2022/07/17 02:27:25;;;;;;;4.95;2.97;;;;;;;16.90;50.34;97492.84;4935032;29;20139;-74
2022/07/17 02:29:53;;;;;;;4.20;3.20;;;;;;;16.89;50.37;97497.31;4953908;29;20099;-74
2022/07/17 02:32:22;;;;;;;5.22;3.35;;;;;;;16.88;51.11;97492.28;4955327;29;20047;-75
2022/07/17 02:34:49;;;;;;;4.40;3.25;;;;;;;16.87;51.40;97494.06;4942777;29;20055;-74
2022/07/17 02:37:17;;;;;;;3.33;2.97;;;;;;;16.89;51.81;97489.41;4935795;29;20139;-75
2022/07/17 02:39:53;;;;;;;4.90;3.55;;;;;;;16.94;51.48;97501.19;4935423;29;20055;-74
2022/07/17 02:42:21;;;;;;;3.58;3.28;;;;;;;16.94;51.75;97491.44;4935101;29;20076;-74
2022/07/17 02:44:49;;;;;;;4.38;3.35;;;;;;;16.93;52.21;97492.47;4935296;29;20083;-74
2022/07/17 02:47:23;;;;;;;4.88;3.30;;;;;;;16.93;52.03;97481.13;4934705;29;20142;-74
2022/07/17 02:49:51;;;;;;;5.10;4.00;;;;;;;16.86;51.04;97481.94;4935000;29;20151;-74
2022/07/17 02:52:19;;;;;;;4.93;3.50;;;;;;;16.78;51.09;97487.34;4934711;29;20557;-74
2022/07/17 02:54:47;;;;;;;5.80;3.50;;;;;;;16.73;51.39;97479.22;4934812;29;20067;-74
2022/07/17 02:57:15;;;;;;;5.32;3.72;;;;;;;16.68;51.25;97482.47;4934706;29;20482;-74
2022/07/17 02:59:43;;;;;;;6.07;3.25;;;;;;;16.65;51.19;97479.41;4934932;29;20447;-74
2022/07/17 03:02:10;;;;;;;3.40;3.00;;;;;;;16.66;51.60;97483.66;4935456;29;20053;-74
2022/07/17 03:04:39;;;;;;;3.67;2.83;;;;;;;16.68;52.54;97486.91;4938602;29;20489;-74
2022/07/17 03:07:07;;;;;;;4.15;3.13;;;;;;;16.67;51.41;97487.94;4938327;29;20427;-74
2022/07/17 03:09:34;;;;;;;3.92;3.53;;;;;;;16.58;51.14;97481.22;4938335;29;20471;-74
2022/07/17 03:12:02;;;;;;;3.75;2.83;;;;;;;16.46;51.05;97478.31;4937992;29;20477;-74
2022/07/17 03:14:30;;;;;;;4.97;3.55;;;;;;;16.32;51.45;97474.84;4938432;29;20079;-74
2022/07/17 03:16:57;;;;;;;3.47;2.72;;;;;;;16.26;51.74;97475.63;4938194;29;20090;-74
2022/07/17 03:19:25;;;;;;;2.83;2.60;;;;;;;16.23;52.03;97474.19;4938312;29;20395;-76
2022/07/17 03:21:54;;;;;;;4.28;3.20;;;;;;;16.27;53.70;97475.44;4937767;29;20138;-74
2022/07/17 03:24:21;;;;;;;4.38;3.58;;;;;;;16.27;52.64;97470.16;4938044;29;20074;-74
2022/07/17 03:26:49;;;;;;;5.38;3.50;;;;;;;16.29;52.75;97480.50;4938194;29;20138;-74
2022/07/17 03:29:17;;;;;;;4.82;2.80;;;;;;;16.32;53.19;97482.75;4938219;29;20437;-74
2022/07/17 03:31:45;;;;;;;6.30;3.55;;;;;;;16.37;53.49;97480.31;4937743;29;20043;-74
2022/07/17 03:34:12;;;;;;;3.95;3.45;;;;;;;16.43;53.10;97481.38;4937880;29;20048;-74
2022/07/17 03:36:41;;;;;;;4.30;3.30;;;;;;;16.49;53.19;97480.59;4938118;29;20059;-74
2022/07/17 03:39:10;;;;;;;4.57;3.80;;;;;;;16.47;53.24;97485.22;4937968;29;20091;-76
2022/07/17 03:41:37;;;;;;;4.72;3.78;;;;;;;16.48;52.82;97481.56;4937374;29;20573;-74
2022/07/17 03:44:05;;;;;;;4.90;3.13;;;;;;;16.48;53.46;97482.38;4937863;29;20048;-73
2022/07/17 03:46:33;;;;;;;4.57;3.60;;;;;;;16.51;53.52;97480.38;4937595;29;20056;-74
2022/07/17 03:49:00;;;;;;;4.35;3.83;;;;;;;16.48;52.94;97479.75;4937621;29;20142;-73
2022/07/17 03:51:28;;;;;;;6.55;3.25;;;;;;;16.45;53.16;97484.63;4937988;29;20409;-74
2022/07/17 03:53:56;;;;;;;4.53;3.20;;;;;;;16.44;53.25;97481.19;4939112;29;20055;-74
2022/07/17 03:56:25;;;;;;;5.43;3.55;;;;;;;16.45;53.23;97481.97;4938686;29;20052;-74
2022/07/17 03:58:53;;;;;;;4.78;3.50;;;;;;;16.44;53.22;97485.59;4938226;29;20055;-74
2022/07/17 04:01:20;;;;;;;3.83;3.20;;;;;;;16.41;52.76;97484.19;4942774;29;20082;-74
2022/07/17 04:03:48;;;;;;;3.40;3.10;;;;;;;16.41;53.50;97489.44;4942197;29;20055;-74
2022/07/17 04:06:16;;;;;;;4.68;3.47;;;;;;;16.44;53.20;97485.59;4938409;29;20047;-73
2022/07/17 04:08:43;;;;;;;3.80;3.50;;;;;;;16.45;53.02;97485.41;4937511;29;20060;-74
2022/07/17 04:11:11;;;;;;;5.60;3.42;;;;;;;16.46;52.77;97494.13;4946914;29;20130;-74
2022/07/17 04:13:40;;;;;;;4.45;3.55;;;;;;;16.45;52.99;97495.97;4955057;29;20123;-74
2022/07/17 04:16:07;;;;;;;5.50;4.15;;;;;;;16.45;53.21;97488.06;4955423;29;20088;-74
2022/07/17 04:18:37;;;;;;;6.25;3.97;;;;;;;16.42;52.19;97488.47;4939031;29;20082;-74
2022/07/17 04:21:05;;;;;;;4.90;4.07;;;;;;;16.32;52.48;97497.72;4937839;29;20047;-74
2022/07/17 04:23:34;;;;;;;9.40;4.50;;;;;;;16.22;52.72;97500.72;4937747;29;20488;-74
2022/07/17 04:26:01;;;;;;;4.15;3.75;;;;;;;16.19;53.38;97496.66;4937526;29;20054;-74
2022/07/17 04:28:36;;;;;;;5.60;3.80;;;;;;;16.24;53.12;97496.06;4937291;29;20052;-74
2022/07/17 04:31:06;;;;;;;6.20;3.92;;;;;;;16.27;53.44;97500.97;4936449;29;20055;-74
2022/07/17 04:33:33;;;;;;;4.00;3.60;;;;;;;16.30;53.60;97491.84;4936972;29;20086;-74
2022/07/17 04:36:01;;;;;;;4.05;3.50;;;;;;;16.32;53.28;97488.00;4937671;29;20138;-74
2022/07/17 04:38:29;;;;;;;4.68;3.47;;;;;;;16.33;53.10;97489.63;4937585;29;20139;-74
2022/07/17 04:40:56;;;;;;;4.88;3.78;;;;;;;16.32;53.21;97498.53;4937093;29;20060;-74
2022/07/17 04:43:25;;;;;;;4.50;3.50;;;;;;;16.32;53.38;97495.09;4937110;29;20508;-74
2022/07/17 04:45:52;;;;;;;5.85;4.05;;;;;;;16.25;52.87;97497.72;4937006;29;20510;-74
2022/07/17 04:48:21;;;;;;;5.40;3.53;;;;;;;16.23;53.58;97499.72;4937206;29;20059;-74
2022/07/17 04:50:49;;;;;;;5.20;4.00;;;;;;;16.22;53.82;97498.91;4936791;29;20111;-74
2022/07/17 04:53:17;;;;;;;5.38;4.18;;;;;;;16.26;53.92;97496.69;4936761;29;20048;-74
2022/07/17 04:55:50;;;;;;;6.13;4.50;;;;;;;16.30;53.93;97505.81;4936615;29;20106;-74
2022/07/17 04:58:18;;;;;;;6.53;4.72;;;;;;;16.28;53.24;97506.00;4936128;29;20051;-74
2022/07/17 05:00:46;;;;;;;4.90;4.22;;;;;;;16.26;53.13;97509.84;4936165;29;20083;-74
2022/07/17 05:03:14;;;;;;;4.13;3.80;;;;;;;16.27;53.18;97508.84;4936436;29;20059;-74
2022/07/17 05:05:42;;;;;;;13.80;4.55;;;;;;;16.28;54.09;97508.63;4936346;29;20059;-74
2022/07/17 05:08:10;;;;;;;4.47;3.80;;;;;;;16.33;53.70;97513.31;4936641;29;20141;-74
2022/07/17 05:10:38;;;;;;;4.40;3.70;;;;;;;16.33;52.89;97510.69;4936595;29;20593;-74
2022/07/17 05:13:05;;;;;;;4.25;3.70;;;;;;;16.32;53.08;97509.06;4936346;29;20051;-74
2022/07/17 05:15:33;;;;;;;5.53;4.55;;;;;;;16.31;52.97;97512.72;4936540;29;20075;-74
2022/07/17 05:18:07;;;;;;;4.32;3.70;;;;;;;16.27;52.87;97511.50;4936756;29;20485;-74
2022/07/17 05:20:35;;;;;;;4.90;3.70;;;;;;;16.23;52.79;97504.97;4936134;29;20058;-74
2022/07/17 05:23:04;;;;;;;4.10;3.75;;;;;;;16.24;53.22;97503.97;4935883;29;20601;-74
2022/07/17 05:25:32;;;;;;;3.50;3.20;;;;;;;16.25;52.72;97506.41;4935989;29;20054;-74
2022/07/17 05:28:01;;;;;;;5.13;3.63;;;;;;;16.25;53.02;97498.50;4935923;29;20103;-74
2022/07/17 05:30:29;;;;;;;6.30;3.78;;;;;;;16.26;53.36;97508.03;4935744;29;20063;-74
2022/07/17 05:32:56;;;;;;;5.28;3.75;;;;;;;16.28;52.76;97505.19;4935741;29;20143;-74
2022/07/17 05:35:24;;;;;;;5.68;3.65;;;;;;;16.30;52.74;97513.72;4935508;29;20057;-74
2022/07/17 05:37:51;;;;;;;3.90;3.38;;;;;;;16.33;53.02;97513.31;4935681;29;20135;-74
2022/07/17 05:40:20;;;;;;;3.40;3.10;;;;;;;16.39;53.37;97509.91;4935692;29;20051;-73
2022/07/17 05:42:48;;;;;;;5.40;2.88;;;;;;;16.44;53.29;97502.25;4935448;29;20554;-74
2022/07/17 05:45:15;;;;;;;4.20;2.70;;;;;;;16.51;53.36;97512.81;4935749;29;20134;-73
2022/07/17 05:51:09;;;;;;;5.13;3.40;;;;;;;16.61;52.73;97512.41;4957467;29;20061;-79
2022/07/17 06:55:28;;;;;;;2.85;2.50;;;;;;;18.07;50.67;97524.94;5676370;23;20111;-74
2022/07/17 06:57:55;;;;;;;2.80;2.40;;;;;;;18.16;50.61;97526.34;4938904;29;20059;-75
2022/07/17 07:00:23;;;;;;;2.53;2.33;;;;;;;18.27;50.28;97530.16;4938550;29;20094;-74
2022/07/17 07:02:50;;;;;;;3.42;2.33;;;;;;;18.37;50.83;97527.09;4938655;29;20080;-74
2022/07/17 07:05:18;;;;;;;3.47;2.35;;;;;;;18.46;50.52;97534.56;4938425;29;20056;-74
2022/07/17 07:07:46;;;;;;;4.40;2.30;;;;;;;18.58;50.28;97533.91;4938930;29;20474;-75
2022/07/17 07:20:55;;;;;;;2.35;2.20;;;;;;;19.14;48.72;97528.78;5406582;23;20139;-76
2022/07/17 07:23:24;;;;;;;2.67;2.03;;;;;;;19.25;48.80;97524.63;4943229;29;20134;-76
2022/07/17 07:25:52;;;;;;;4.15;1.77;;;;;;;19.37;48.60;97526.59;4942167;29;20087;-76
2022/07/17 07:28:19;;;;;;;5.32;2.10;;;;;;;19.47;47.78;97525.06;4938833;29;20485;-77
2022/07/17 07:30:47;;;;;;;4.65;2.35;;;;;;;19.57;47.50;97524.59;4937760;29;20052;-77
2022/07/17 07:33:16;;;;;;;2.17;1.88;;;;;;;19.68;47.14;97523.91;4938024;29;20056;-76
2022/07/17 07:35:43;;;;;;;1.63;1.52;;;;;;;19.80;47.22;97526.66;4937889;29;20492;-77
2022/07/17 07:38:12;;;;;;;2.55;1.83;;;;;;;19.92;46.91;97524.13;4937928;29;20060;-78
2022/07/17 07:40:40;;;;;;;3.00;2.03;;;;;;;20.02;46.69;97521.75;4937369;29;20506;-76
2022/07/17 07:43:08;;;;;;;2.08;1.92;;;;;;;20.14;46.29;97529.81;4937901;29;20047;-77
2022/07/17 07:45:35;;;;;;;1.92;1.83;;;;;;;20.23;46.19;97528.47;4937922;29;20066;-76
2022/07/17 07:48:04;;;;;;;1.88;1.77;;;;;;;20.34;45.61;97532.25;4937145;29;20043;-76
2022/07/17 07:50:31;;;;;;;4.35;1.63;;;;;;;20.46;45.75;97542.91;4936528;29;20060;-76
2022/07/17 07:52:59;;;;;;;1.83;1.35;;;;;;;20.56;44.84;97535.25;4937565;29;20048;-76
2022/07/17 07:55:28;;;;;;;2.72;1.85;;;;;;;20.68;44.41;97540.63;4937974;29;20142;-76
2022/07/17 07:58:06;;;;;;;2.05;1.63;;;;;;;20.80;44.92;97538.03;4954909;29;20107;-76
2022/07/17 08:00:34;;;;;;;3.20;1.90;;;;;;;20.91;44.31;97534.63;4957134;29;20055;-77
2022/07/17 08:03:01;;;;;;;2.17;1.90;;;;;;;21.02;43.49;97538.34;4948807;29;20063;-76
2022/07/17 08:05:30;;;;;;;1.98;1.85;;;;;;;21.11;43.24;97547.59;4940640;29;20058;-77
2022/07/17 08:07:57;;;;;;;2.67;1.50;;;;;;;21.20;42.84;97541.75;4941521;29;20055;-76
2022/07/17 08:10:26;;;;;;;3.10;1.40;;;;;;;21.31;42.83;97542.81;4940067;29;20134;-76
2022/07/17 08:12:55;;;;;;;3.08;1.52;;;;;;;21.44;42.15;97554.31;4939127;29;20048;-75
2022/07/17 08:15:22;;;;;;;2.25;1.45;;;;;;;21.54;42.36;97562.53;4938314;29;20151;-75
2022/07/17 08:17:52;;;;;;;2.58;1.48;;;;;;;21.63;41.92;97550.53;4937723;29;20577;-75
2022/07/17 08:20:21;;;;;;;3.78;1.90;;;;;;;21.74;41.86;97552.38;4937319;29;20454;-75
2022/07/17 08:22:50;;;;;;;2.35;1.45;;;;;;;21.85;41.78;97555.28;4937865;29;20139;-76
2022/07/17 08:25:34;;;;;;;2.13;1.50;;;;;;;21.96;41.24;97549.97;4937830;29;20422;-75
2022/07/17 08:28:06;;;;;;;2.42;1.92;;;;;;;22.07;40.55;97551.00;4937927;29;20074;-76
2022/07/17 08:30:34;;;;;;;2.03;1.63;;;;;;;22.16;40.38;97549.59;4937435;29;20090;-75
2022/07/17 08:33:03;;;;;;;4.68;3.40;;;;;;;22.26;39.84;97545.56;4937713;29;20433;-74
2022/07/17 08:35:31;;;;;;;27.90;17.70;;;;;;;22.35;39.99;97552.16;4937561;29;20544;-74
2022/07/17 08:38:00;;;;;;;4.47;2.72;;;;;;;22.44;39.00;97549.94;4937589;29;20138;-74
2022/07/17 08:40:29;;;;;;;2.47;1.40;;;;;;;22.51;38.16;97554.09;4937679;29;20056;-75
2022/07/17 08:43:00;;;;;;;1.63;1.52;;;;;;;22.59;36.92;97559.03;4937807;29;20048;-74
2022/07/17 08:45:29;;;;;;;2.30;1.75;;;;;;;22.68;36.50;97554.16;4937905;29;20114;-75
2022/07/17 08:47:58;;;;;;;3.42;1.50;;;;;;;22.78;36.74;97546.38;4937672;29;20059;-75
2022/07/17 08:50:29;;;;;;;2.97;1.70;;;;;;;22.88;36.38;97560.91;4936970;29;20058;-75
2022/07/17 08:52:56;;;;;;;4.00;2.65;;;;;;;22.94;36.54;97544.81;4937432;29;20434;-75
2022/07/17 08:55:25;;;;;;;1.77;1.67;;;;;;;23.01;36.25;97548.16;4937207;29;20052;-76
2022/07/17 08:57:53;;;;;;;5.65;1.50;;;;;;;23.10;36.79;97553.09;4937297;29;20134;-75
2022/07/17 09:00:22;;;;;;;3.08;1.90;;;;;;;23.20;36.30;97553.31;4936434;29;20591;-75
2022/07/17 09:02:57;;;;;;;1.77;1.42;;;;;;;23.27;35.62;97548.63;4936902;29;20062;-75
2022/07/17 09:05:28;;;;;;;2.83;1.77;;;;;;;23.36;36.58;97551.69;4936720;29;20425;-75
2022/07/17 09:07:56;;;;;;;2.03;1.80;;;;;;;23.43;35.30;97547.81;4937044;29;20139;-75
2022/07/17 09:10:35;;;;;;;2.72;1.70;;;;;;;23.51;35.16;97543.16;4938324;29;20056;-77
2022/07/17 09:13:13;;;;;;;1.30;1.15;;;;;;;23.56;35.12;97546.69;4937437;29;20510;-75
2022/07/17 09:15:41;;;;;;;2.60;1.88;;;;;;;23.63;35.24;97543.88;4936602;29;20060;-75
2022/07/17 09:18:14;;;;;;;3.00;1.10;;;;;;;23.68;34.32;97556.47;4936258;29;20052;-76
2022/07/17 09:20:47;;;;;;;1.73;1.48;;;;;;;23.74;34.68;97552.84;4936127;29;20060;-75
2022/07/17 09:23:14;;;;;;;3.08;1.65;;;;;;;23.80;34.79;97547.38;4937107;29;20604;-75
2022/07/17 09:25:45;;;;;;;1.40;1.30;;;;;;;23.90;34.29;97551.22;4939770;29;20059;-75
2022/07/17 09:28:14;;;;;;;3.45;1.40;;;;;;;23.96;33.94;97545.72;4956932;29;20047;-76
2022/07/17 09:30:44;;;;;;;1.75;1.65;;;;;;;24.05;33.23;97546.13;4943433;29;20143;-76
2022/07/17 09:33:15;;;;;;;2.33;1.40;;;;;;;24.12;33.21;97553.94;4938588;29;20138;-74
2022/07/17 09:35:51;;;;;;;1.40;1.27;;;;;;;24.16;32.92;97547.91;4939493;29;20126;-75
2022/07/17 09:38:33;;;;;;;3.20;1.25;;;;;;;24.24;33.43;97552.00;4951557;29;20056;-75
2022/07/17 09:41:16;;;;;;;4.03;1.50;;;;;;;24.30;31.94;97544.88;4952101;29;20079;-75
2022/07/17 09:43:50;;;;;;;1.80;1.30;;;;;;;24.34;32.06;97546.81;4938191;29;20058;-75
2022/07/17 09:46:20;;;;;;;1.50;1.40;;;;;;;24.36;31.37;97543.88;4936214;29;20052;-76
2022/07/17 09:48:52;;;;;;;1.10;1.00;;;;;;;24.39;31.83;97554.84;4935966;29;20048;-76
2022/07/17 09:51:23;;;;;;;3.15;1.38;;;;;;;24.43;31.62;97547.19;4936174;29;20047;-76
2022/07/17 09:53:53;;;;;;;1.90;1.33;;;;;;;24.46;31.63;97549.34;4936096;29;20087;-75
2022/07/17 09:56:23;;;;;;;2.97;1.30;;;;;;;24.51;31.70;97551.28;4936322;29;20083;-75
2022/07/17 09:58:52;;;;;;;2.33;1.33;;;;;;;24.56;31.92;97544.16;4936206;29;20528;-75
2022/07/17 10:01:21;;;;;;;2.35;1.67;;;;;;;24.62;31.58;97543.19;4935521;29;20134;-75
2022/07/17 10:03:53;;;;;;;1.70;1.60;;;;;;;24.71;31.26;97546.22;4935690;29;20126;-75
2022/07/17 10:06:21;;;;;;;2.28;1.40;;;;;;;24.80;31.10;97535.91;4935758;29;20457;-76
2022/07/17 10:08:50;;;;;;;1.60;0.90;;;;;;;24.87;30.51;97539.19;4935978;29;20048;-76
2022/07/17 10:11:21;;;;;;;1.20;1.10;;;;;;;24.94;30.43;97539.78;4935334;29;20051;-75
2022/07/17 10:13:52;;;;;;;1.02;1.02;;;;;;;25.03;29.55;97542.81;4937472;29;20052;-75
2022/07/17 10:16:27;;;;;;;2.45;1.17;;;;;;;25.08;28.76;97530.31;4936987;29;20130;-76
2022/07/17 10:18:58;;;;;;;0.88;0.88;;;;;;;25.14;29.67;97525.03;4937744;29;20058;-75
2022/07/17 10:21:28;;;;;;;2.53;0.80;;;;;;;25.23;29.81;97526.19;4935222;29;20047;-75
2022/07/17 10:24:09;;;;;;;1.05;0.90;;;;;;;25.32;29.71;97524.69;4935985;29;20581;-76
2022/07/17 10:26:44;;;;;;;1.33;1.23;;;;;;;25.42;28.98;97530.09;4935700;29;20099;-76
2022/07/17 10:29:34;;;;;;;1.08;1.00;;;;;;;25.51;29.35;97527.78;4936232;29;20051;-75
2022/07/17 10:32:07;;;;;;;1.67;0.93;;;;;;;25.57;28.19;97532.09;4940837;29;20051;-76
2022/07/17 10:34:42;;;;;;;2.40;1.13;;;;;;;25.61;28.06;97524.38;4938277;29;20055;-75
2022/07/17 10:37:21;;;;;;;2.83;1.20;;;;;;;25.63;27.78;97519.59;4935703;29;20134;-76
2022/07/17 10:40:04;;;;;;;2.40;1.00;;;;;;;25.68;27.81;97522.31;4935966;29;20079;-75
2022/07/17 10:42:51;;;;;;;0.98;0.90;;;;;;;25.73;28.38;97519.66;4935784;29;20051;-75
2022/07/17 10:45:24;;;;;;;1.95;0.80;;;;;;;25.78;27.68;97525.06;4935134;29;20546;-76
2022/07/17 10:47:55;;;;;;;2.42;1.23;;;;;;;25.83;27.89;97509.03;4935138;29;20139;-75
2022/07/17 10:50:28;;;;;;;5.10;2.55;;;;;;;25.89;28.28;97515.25;4935402;29;20134;-75
2022/07/17 10:53:00;;;;;;;1.00;1.00;;;;;;;25.96;27.61;97518.50;4935514;29;20067;-76
2022/07/17 10:55:28;;;;;;;;;;;;;;;25.99;27.72;97512.63;4935531;29;20135;-75
2022/07/17 10:57:56;;;;;;;1.00;0.88;;;;;;;26.00;27.00;97514.25;4934955;29;19961;-76
2022/07/17 11:00:24;;;;;;;0.80;0.80;;;;;;;26.01;26.82;97509.72;4934619;29;20087;-76
2022/07/17 11:02:51;;;;;;;1.33;1.10;;;;;;;26.05;27.17;97521.50;4935311;29;20110;-76
2022/07/17 11:05:19;;;;;;;1.20;1.10;;;;;;;26.09;26.92;97512.69;4935243;29;20052;-75
2022/07/17 11:07:58;;;;;;;1.20;1.10;;;;;;;26.12;26.64;97518.59;4935258;29;20421;-75
2022/07/17 11:10:27;;;;;;;1.10;1.00;;;;;;;26.14;26.42;97519.94;4934608;29;20055;-74
2022/07/17 11:13:07;;;;;;;1.17;1.10;;;;;;;26.17;26.69;97516.72;4934916;29;20059;-75
2022/07/17 11:15:39;;;;;;;1.98;1.38;;;;;;;26.22;25.93;97519.44;4934947;29;20099;-75
2022/07/17 11:18:10;;;;;;;;;;;;;;;26.25;27.03;97516.25;4935467;29;20057;-75
2022/07/17 11:20:48;;;;;;;1.20;1.10;;;;;;;26.29;25.74;97506.63;4934491;29;19923;-75
2022/07/17 11:23:17;;;;;;;2.05;1.00;;;;;;;26.35;26.38;97503.97;4935688;29;20545;-75
2022/07/17 11:25:57;;;;;;;2.35;0.95;;;;;;;26.40;24.97;97507.50;4938341;29;20105;-76
2022/07/17 11:28:36;;;;;;;0.75;0.75;;;;;;;26.45;25.50;97498.69;4938690;29;20062;-76
2022/07/17 11:31:15;;;;;;;1.02;1.02;;;;;;;26.50;25.09;97496.00;4937883;29;20131;-75
2022/07/17 11:33:47;;;;;;;1.25;0.93;;;;;;;26.53;24.91;97495.50;4938263;29;20055;-75
2022/07/17 11:36:21;;;;;;;0.95;0.80;;;;;;;26.56;25.37;97483.50;4938344;29;20056;-76
2022/07/17 11:38:50;;;;;;;1.00;0.90;;;;;;;26.58;25.26;97484.84;4938174;29;20054;-76
2022/07/17 11:41:18;;;;;;;0.85;0.85;;;;;;;26.60;25.31;97481.91;4941144;29;20058;-75
2022/07/17 11:43:46;;;;;;;1.10;0.98;;;;;;;26.64;25.41;97491.81;4959627;29;20067;-75
2022/07/17 11:46:15;;;;;;;1.15;0.90;;;;;;;26.68;25.69;97481.41;4958312;29;20071;-75
2022/07/17 11:48:44;;;;;;;2.70;1.10;;;;;;;26.72;25.08;97482.47;4947951;29;20047;-75
2022/07/17 11:51:12;;;;;;;2.05;1.27;;;;;;;26.75;25.50;97481.16;4940022;29;20134;-75
2022/07/17 11:53:40;;;;;;;2.33;1.80;;;;;;;26.78;24.88;97483.28;4938538;29;20134;-75
2022/07/17 11:56:20;;;;;;;1.00;0.80;;;;;;;26.82;25.00;97481.69;4938114;29;20425;-75
2022/07/17 11:58:48;;;;;;;1.52;1.42;;;;;;;26.85;25.51;97476.63;4937993;29;20053;-75
2022/07/17 12:01:16;;;;;;;2.08;1.50;;;;;;;26.87;24.88;97473.66;4937676;29;20052;-76
2022/07/17 12:03:44;;;;;;;1.38;1.00;;;;;;;26.90;25.03;97467.78;4937930;29;20156;-76
2022/07/17 12:06:11;;;;;;;1.83;1.00;;;;;;;26.93;24.89;97464.56;4937738;29;20134;-75
2022/07/17 12:08:39;;;;;;;1.83;0.60;;;;;;;26.98;25.20;97458.41;4937799;29;20482;-76
2022/07/17 12:11:09;;;;;;;2.38;0.80;;;;;;;27.02;25.08;97465.63;4937312;29;20051;-75
2022/07/17 12:13:43;;;;;;;0.80;0.80;;;;;;;27.08;25.10;97469.94;4937912;29;20058;-76
2022/07/17 12:16:26;;;;;;;0.65;0.65;;;;;;;27.11;25.06;97464.06;4937511;29;20083;-75
2022/07/17 12:19:02;;;;;;;1.00;0.80;;;;;;;27.12;24.46;97468.34;4939769;29;20332;-76
2022/07/17 12:21:30;;;;;;;2.80;1.10;;;;;;;27.15;24.71;97469.66;4940448;29;20494;-76
2022/07/17 12:24:00;;;;;;;0.90;0.90;;;;;;;27.17;24.94;97466.72;4939980;29;20411;-76
2022/07/17 12:26:29;;;;;;;5.30;0.80;;;;;;;27.19;24.89;97470.75;4938579;29;20432;-76
2022/07/17 12:28:58;;;;;;;2.25;0.90;;;;;;;27.22;24.58;97474.78;4937534;29;20102;-75
2022/07/17 12:31:28;;;;;;;0.95;0.82;;;;;;;27.23;24.00;97471.84;4937605;29;20052;-75
2022/07/17 12:33:56;;;;;;;1.02;0.63;;;;;;;27.25;24.13;97474.25;4937628;29;20119;-75
2022/07/17 12:36:24;;;;;;;0.73;0.73;;;;;;;27.29;24.88;97472.66;4936509;29;20417;-75
2022/07/17 12:38:52;;;;;;;0.80;0.80;;;;;;;27.32;24.10;97472.91;4937736;29;20461;-76
2022/07/17 12:41:20;;;;;;;2.00;0.93;;;;;;;27.35;24.12;97468.88;4937030;29;20065;-76
2022/07/17 12:43:47;;;;;;;0.70;0.55;;;;;;;27.37;23.82;97468.63;4937737;29;20079;-77
2022/07/17 12:46:17;;;;;;;1.38;0.70;;;;;;;27.37;23.38;97472.09;4937954;29;20054;-76
2022/07/17 12:48:45;;;;;;;1.10;0.77;;;;;;;27.39;23.69;97480.69;4947972;29;20043;-76
2022/07/17 12:51:14;;;;;;;1.45;0.85;;;;;;;27.40;23.76;97466.22;4957828;29;20058;-76
2022/07/17 12:53:43;;;;;;;1.83;0.95;;;;;;;27.41;23.77;97462.47;4952328;29;20051;-78
2022/07/17 12:56:11;;;;;;;0.68;0.68;;;;;;;27.44;24.10;97461.94;4939612;29;20079;-76
2022/07/17 12:58:39;;;;;;;2.17;1.52;;;;;;;27.45;23.75;97458.16;4938536;29;20101;-76
2022/07/17 13:01:07;;;;;;;0.75;0.75;;;;;;;27.48;23.49;97460.28;4936983;29;20138;-76